createdAt,value
2018-09-03T00:01:34.465Z,96816.52
2018-09-03T00:04:03.224Z,96814.98
2018-09-03T00:06:32.008Z,96818.33
2018-09-03T00:09:00.837Z,96820.65
2018-09-03T00:11:29.606Z,96827.95
2018-09-03T00:14:04.948Z,96837.27
2018-09-03T00:16:33.843Z,96842.22
2018-09-03T00:19:02.649Z,96845.18
2018-09-03T00:21:31.571Z,96852.52
2018-09-03T00:24:00.322Z,96856.72
2018-09-03T00:26:29.115Z,96851.63
2018-09-03T00:28:57.885Z,96853.20
2018-09-03T00:31:31.991Z,96846.98
2018-09-03T00:34:05.768Z,96854.88
2018-09-03T00:36:39.599Z,96858.25
2018-09-03T00:39:13.761Z,96858.01
2018-09-03T00:41:47.785Z,96859.55
2018-09-03T00:44:21.641Z,96860.30
2018-09-03T00:46:58.353Z,96873.29
2018-09-03T00:49:27.117Z,96878.50
2018-09-03T00:51:55.912Z,96874.63
2018-09-03T00:54:24.677Z,96861.83
2018-09-03T00:56:53.616Z,96856.44
2018-09-03T00:59:22.392Z,96859.33
2018-09-03T01:01:51.412Z,96850.80
2018-09-03T01:04:20.200Z,96852.58
2018-09-03T01:06:48.952Z,96850.53
2018-09-03T01:09:17.713Z,96849.23
2018-09-03T01:11:46.476Z,96846.51
2018-09-03T01:14:15.218Z,96842.05
2018-09-03T01:16:43.997Z,96839.89
2018-09-03T01:19:12.744Z,96834.23
2018-09-03T01:21:41.557Z,96838.73
2018-09-03T01:24:10.321Z,96839.52
2018-09-03T01:26:39.117Z,96837.67
2018-09-03T01:29:07.907Z,96838.49
2018-09-03T01:31:36.673Z,96834.60
2018-09-03T01:34:05.420Z,96830.13
2018-09-03T01:36:34.222Z,96836.34
2018-09-03T01:39:03.033Z,96842.45
2018-09-03T01:41:31.790Z,96843.98
2018-09-03T01:44:00.583Z,96842.69
2018-09-03T01:46:29.323Z,96833.34
2018-09-03T01:48:58.109Z,96832.08
2018-09-03T01:51:26.865Z,96822.73
2018-09-03T01:53:55.675Z,96816.76
2018-09-03T01:56:24.416Z,96818.67
2018-09-03T01:58:53.173Z,96806.25
2018-09-03T02:01:21.909Z,96809.08
2018-09-03T02:03:50.771Z,96810.27
2018-09-03T02:06:19.881Z,96806.42
2018-09-03T02:08:48.708Z,96791.48
2018-09-03T02:11:17.478Z,96796.11
2018-09-03T02:13:46.312Z,96799.15
2018-09-03T02:16:15.053Z,96798.09
2018-09-03T02:18:43.977Z,96794.77
2018-09-03T02:21:12.797Z,96788.41
2018-09-03T02:23:41.588Z,96790.69
2018-09-03T02:26:10.355Z,96788.91
2018-09-03T02:28:39.111Z,96787.37
2018-09-03T02:31:07.880Z,96791.22
2018-09-03T02:33:36.724Z,96796.58
2018-09-03T02:36:05.775Z,96788.36
2018-09-03T02:38:34.530Z,96787.13
2018-09-03T02:41:03.316Z,96786.58
2018-09-03T02:43:32.093Z,96789.56
2018-09-03T02:46:00.853Z,96793.41
2018-09-03T02:48:29.649Z,96788.62
2018-09-03T02:50:58.536Z,96785.25
2018-09-03T02:53:27.315Z,96782.45
2018-09-03T02:55:56.080Z,96780.44
2018-09-03T02:58:24.839Z,96772.31
2018-09-03T03:00:53.576Z,96771.94
2018-09-03T03:03:22.349Z,96771.33
2018-09-03T03:05:51.148Z,96776.59
2018-09-03T03:08:19.916Z,96768.81
2018-09-03T03:10:48.669Z,96769.36
2018-09-03T03:13:17.442Z,96767.59
2018-09-03T03:15:46.284Z,96766.19
2018-09-03T03:18:15.016Z,96770.89
2018-09-03T03:20:43.785Z,96773.83
2018-09-03T03:23:12.580Z,96768.64
2018-09-03T03:25:41.341Z,96765.55
2018-09-03T03:28:10.119Z,96762.72
2018-09-03T03:30:38.900Z,96758.92
2018-09-03T03:33:07.715Z,96755.86
2018-09-03T03:35:36.496Z,96747.53
2018-09-03T03:38:05.300Z,96746.44
2018-09-03T03:40:34.096Z,96743.17
2018-09-03T03:43:02.884Z,96745.52
2018-09-03T03:45:31.637Z,96742.39
2018-09-03T03:48:00.397Z,96738.19
2018-09-03T03:50:29.160Z,96736.89
2018-09-03T03:52:57.992Z,96732.45
2018-09-03T03:55:26.811Z,96731.16
2018-09-03T03:57:55.588Z,96731.74
2018-09-03T04:00:24.365Z,96729.93
2018-09-03T04:02:53.254Z,96738.70
2018-09-03T04:05:22.693Z,96736.89
2018-09-03T04:07:51.883Z,96731.59
2018-09-03T04:10:20.870Z,96732.38
2018-09-03T04:12:58.928Z,96733.27
2018-09-03T04:15:28.188Z,96737.13
2018-09-03T04:17:57.279Z,96733.98
2018-09-03T04:20:26.481Z,96736.55
2018-09-03T04:22:55.722Z,96738.42
2018-09-03T04:25:24.909Z,96739.95
2018-09-03T04:27:55.197Z,96737.64
2018-09-03T04:30:24.455Z,96739.48
2018-09-03T04:32:54.225Z,96740.47
2018-09-03T04:35:23.393Z,96739.44
2018-09-03T04:37:52.652Z,96734.19
2018-09-03T04:40:21.786Z,96737.70
2018-09-03T04:42:50.884Z,96732.86
2018-09-03T04:45:20.184Z,96738.55
2018-09-03T04:47:51.017Z,96737.09
2018-09-03T04:50:20.332Z,96737.88
2018-09-03T04:52:49.376Z,96745.82
2018-09-03T04:55:18.506Z,96745.96
2018-09-03T04:57:47.508Z,96748.07
2018-09-03T05:00:16.561Z,96743.23
2018-09-03T05:02:45.872Z,96748.14
2018-09-03T05:05:14.940Z,96744.13
2018-09-03T05:07:43.992Z,96743.91
2018-09-03T05:10:12.904Z,96743.59
2018-09-03T05:12:41.916Z,96742.96
2018-09-03T05:15:10.679Z,96745.16
2018-09-03T05:17:39.488Z,96741.78
2018-09-03T05:20:08.425Z,96743.39
2018-09-03T05:22:37.474Z,96744.33
2018-09-03T05:25:06.488Z,96747.80
2018-09-03T05:27:36.861Z,96749.89
2018-09-03T05:30:06.337Z,96751.38
2018-09-03T05:32:35.069Z,96757.59
2018-09-03T05:35:03.832Z,96749.77
2018-09-03T05:37:32.593Z,96751.05
2018-09-03T05:40:01.343Z,96750.62
2018-09-03T05:42:30.113Z,96754.56
2018-09-03T05:44:58.863Z,96749.80
2018-09-03T05:47:27.597Z,96745.76
2018-09-03T05:49:56.347Z,96748.11
2018-09-03T05:52:25.101Z,96750.67
2018-09-03T05:54:53.903Z,96751.25
2018-09-03T05:57:22.643Z,96748.42
2018-09-03T05:59:51.428Z,96753.77
2018-09-03T06:02:20.208Z,96751.25
2018-09-03T06:04:49.063Z,96754.99
2018-09-03T06:07:17.864Z,96750.08
2018-09-03T06:09:46.627Z,96745.52
2018-09-03T06:12:15.387Z,96749.88
2018-09-03T06:14:44.140Z,96748.47
2018-09-03T06:17:12.902Z,96749.84
2018-09-03T06:19:41.651Z,96747.92
2018-09-03T06:22:10.408Z,96748.74
2018-09-03T06:24:39.346Z,96747.17
2018-09-03T06:27:08.112Z,96749.41
2018-09-03T06:29:36.869Z,96755.03
2018-09-03T06:32:05.708Z,96759.45
2018-09-03T06:34:34.560Z,96759.13
2018-09-03T06:37:03.333Z,96765.38
2018-09-03T06:39:32.111Z,96759.09
2018-09-03T06:42:00.875Z,96757.83
2018-09-03T06:44:29.772Z,96760.46
2018-09-03T06:46:58.531Z,96763.22
2018-09-03T06:49:27.307Z,96764.20
2018-09-03T06:51:56.060Z,96762.78
2018-09-03T06:54:24.920Z,96750.84
2018-09-03T06:56:53.681Z,96750.19
2018-09-03T06:59:22.465Z,96743.48
2018-09-03T07:01:51.303Z,96745.08
2018-09-03T07:04:20.064Z,96744.38
2018-09-03T07:06:48.838Z,96741.00
2018-09-03T07:09:18.093Z,96743.61
2018-09-03T07:11:46.861Z,96740.92
2018-09-03T07:14:15.611Z,96740.97
2018-09-03T07:16:44.367Z,96739.30
2018-09-03T07:19:19.685Z,96738.47
2018-09-03T07:21:48.464Z,96734.23
2018-09-03T07:24:17.225Z,96741.43
2018-09-03T07:26:46.056Z,96742.08
2018-09-03T07:29:14.807Z,96735.81
2018-09-03T07:31:43.602Z,96733.81
2018-09-03T07:34:12.426Z,96741.66
2018-09-03T07:36:41.214Z,96737.48
2018-09-03T07:39:10.386Z,96742.96
2018-09-03T07:41:39.160Z,96752.48
2018-09-03T07:44:07.976Z,96748.16
2018-09-03T07:46:36.756Z,96752.89
2018-09-03T07:49:05.515Z,96744.27
2018-09-03T07:51:34.290Z,96748.94
2018-09-03T07:54:03.069Z,96751.77
2018-09-03T07:56:31.840Z,96752.75
2018-09-03T07:59:00.892Z,96751.36
2018-09-03T08:01:29.632Z,96749.34
2018-09-03T08:03:58.387Z,96761.00
2018-09-03T08:06:27.131Z,96758.75
2018-09-03T08:08:56.873Z,96765.39
2018-09-03T08:11:25.633Z,96768.47
2018-09-03T08:13:54.396Z,96767.22
2018-09-03T08:16:23.280Z,96760.20
2018-09-03T08:18:52.106Z,96758.52
2018-09-03T08:21:20.844Z,96753.17
2018-09-03T08:23:49.599Z,96750.66
2018-09-03T08:26:18.364Z,96751.29
2018-09-03T08:28:47.129Z,96750.84
2018-09-03T08:31:15.896Z,96745.41
2018-09-03T08:33:44.737Z,96745.78
2018-09-03T08:36:13.651Z,96748.49
2018-09-03T08:38:42.424Z,96737.16
2018-09-03T08:41:11.195Z,96738.45
2018-09-03T08:43:39.991Z,96731.45
2018-09-03T08:46:08.780Z,96733.25
2018-09-03T08:48:37.675Z,96723.06
2018-09-03T08:51:06.488Z,96722.09
2018-09-03T08:53:35.272Z,96721.67
2018-09-03T08:56:04.107Z,96724.64
2018-09-03T08:58:32.875Z,96734.36
2018-09-03T09:01:01.645Z,96732.69
2018-09-03T09:03:35.487Z,96725.78
2018-09-03T09:06:04.294Z,96726.62
2018-09-03T09:08:33.062Z,96726.02
2018-09-03T09:11:01.820Z,96728.14
2018-09-03T09:13:30.573Z,96723.31
2018-09-03T09:15:59.709Z,96725.56
2018-09-03T09:18:28.460Z,96731.09
2018-09-03T09:20:57.197Z,96728.44
2018-09-03T09:23:25.923Z,96733.64
2018-09-03T09:25:54.697Z,96729.80
2018-09-03T09:28:23.451Z,96728.60
2018-09-03T09:30:52.792Z,96724.62
2018-09-03T09:33:21.604Z,96718.28
2018-09-03T09:35:50.394Z,96716.11
2018-09-03T09:38:19.142Z,96716.33
2018-09-03T09:40:47.929Z,96717.98
2018-09-03T09:43:16.772Z,96714.33
2018-09-03T09:45:45.526Z,96715.87
2018-09-03T09:48:14.289Z,96719.24
2018-09-03T09:50:43.060Z,96722.89
2018-09-03T09:53:11.836Z,96721.19
2018-09-03T09:55:40.605Z,96723.89
2018-09-03T09:58:09.391Z,96727.70
2018-09-03T10:00:43.303Z,96729.78
2018-09-03T10:03:12.177Z,96726.32
2018-09-03T10:05:41.035Z,96726.26
2018-09-03T10:08:09.816Z,96730.56
2018-09-03T10:10:38.996Z,96723.30
2018-09-03T10:13:08.086Z,96730.14
2018-09-03T10:15:37.177Z,96725.95
2018-09-03T10:18:06.471Z,96729.78
2018-09-03T10:20:35.715Z,96724.05
2018-09-03T10:23:04.960Z,96729.91
2018-09-03T10:25:34.152Z,96731.22
2018-09-03T10:28:03.168Z,96734.83
2018-09-03T10:30:31.929Z,96732.10
2018-09-03T10:33:00.789Z,96732.91
2018-09-03T10:35:29.589Z,96735.98
2018-09-03T10:37:58.377Z,96730.53
2018-09-03T10:40:27.340Z,96726.92
2018-09-03T10:42:56.849Z,96733.39
2018-09-03T10:45:25.667Z,96732.98
2018-09-03T10:47:54.421Z,96731.02
2018-09-03T10:50:23.180Z,96731.94
2018-09-03T10:52:51.989Z,96733.79
2018-09-03T10:55:20.761Z,96735.25
2018-09-03T10:57:49.538Z,96729.27
2018-09-03T11:00:18.327Z,96729.38
2018-09-03T11:02:47.076Z,96725.21
2018-09-03T11:05:15.908Z,96727.72
2018-09-03T11:07:44.885Z,96724.87
2018-09-03T11:10:13.649Z,96727.78
2018-09-03T11:12:42.432Z,96723.16
2018-09-03T11:15:11.217Z,96725.77
2018-09-03T11:17:39.981Z,96725.02
2018-09-03T11:20:11.937Z,96723.64
2018-09-03T11:22:40.709Z,96721.03
2018-09-03T11:25:09.598Z,96712.75
2018-09-03T11:27:38.467Z,96711.88
2018-09-03T11:30:08.049Z,96705.53
2018-09-03T11:32:36.819Z,96704.20
2018-09-03T11:35:05.655Z,96710.43
2018-09-03T11:37:34.395Z,96709.11
2018-09-03T11:40:03.165Z,96709.38
2018-09-03T11:42:31.944Z,96704.02
2018-09-03T11:45:00.720Z,96708.95
2018-09-03T11:47:29.482Z,96705.38
2018-09-03T11:49:58.261Z,96716.05
2018-09-03T11:52:27.051Z,96710.62
2018-09-03T11:54:55.815Z,96713.45
2018-09-03T11:57:24.598Z,96719.81
2018-09-03T11:59:53.408Z,96716.55
2018-09-03T12:02:22.226Z,96711.98
2018-09-03T12:04:51.033Z,96718.58
2018-09-03T12:07:19.874Z,96715.47
2018-09-03T12:09:48.646Z,96712.95
2018-09-03T12:12:17.425Z,96709.30
2018-09-03T12:14:48.627Z,96711.42
2018-09-03T12:17:17.464Z,96718.34
2018-09-03T12:19:46.218Z,96719.69
2018-09-03T12:22:14.971Z,96724.06
2018-09-03T12:24:43.724Z,96723.50
2018-09-03T12:27:12.527Z,96731.17
2018-09-03T12:29:41.271Z,96725.15
2018-09-03T12:32:10.063Z,96725.98
2018-09-03T12:34:38.819Z,96719.39
2018-09-03T12:37:07.605Z,96715.87
2018-09-03T12:39:36.347Z,96713.76
2018-09-03T12:42:05.184Z,96714.17
2018-09-03T12:44:33.928Z,96703.92
2018-09-03T12:47:02.708Z,96699.09
2018-09-03T12:49:31.456Z,96694.37
2018-09-03T12:52:00.257Z,96696.84
2018-09-03T12:54:29.033Z,96696.51
2018-09-03T12:56:57.780Z,96692.19
2018-09-03T12:59:26.520Z,96684.64
2018-09-03T13:01:55.265Z,96688.13
2018-09-03T13:04:24.113Z,96686.05
2018-09-03T13:06:52.846Z,96677.51
2018-09-03T13:09:21.623Z,96683.13
2018-09-03T13:11:50.395Z,96679.22
2018-09-03T13:14:19.167Z,96675.36
2018-09-03T13:16:47.945Z,96683.08
2018-09-03T13:19:17.090Z,96683.34
2018-09-03T13:21:45.872Z,96675.41
2018-09-03T13:24:14.645Z,96671.89
2018-09-03T13:26:43.507Z,96670.86
2018-09-03T13:29:12.260Z,96662.08
2018-09-03T13:31:41.017Z,96672.27
2018-09-03T13:34:09.832Z,96673.69
2018-09-03T13:36:38.629Z,96671.09
2018-09-03T13:39:09.182Z,96673.94
2018-09-03T13:41:37.971Z,96665.85
2018-09-03T13:44:06.893Z,96670.09
2018-09-03T13:46:35.720Z,96671.51
2018-09-03T13:49:04.529Z,96667.70
2018-09-03T13:51:33.272Z,96671.19
2018-09-03T13:54:02.036Z,96669.13
2018-09-03T13:56:30.924Z,96667.59
2018-09-03T13:58:59.654Z,96664.02
2018-09-03T14:01:28.404Z,96651.05
2018-09-03T14:03:57.212Z,96654.20
2018-09-03T14:06:26.057Z,96648.11
2018-09-03T14:08:54.886Z,96646.95
2018-09-03T14:11:23.689Z,96648.08
2018-09-03T14:13:52.505Z,96653.59
2018-09-03T14:16:21.359Z,96657.78
2018-09-03T14:18:50.105Z,96653.64
2018-09-03T14:21:18.949Z,96649.05
2018-09-03T14:23:47.764Z,96652.39
2018-09-03T14:26:16.553Z,96648.69
2018-09-03T14:28:45.323Z,96650.17
2018-09-03T14:31:14.069Z,96657.78
2018-09-03T14:33:42.876Z,96651.65
2018-09-03T14:36:11.634Z,96647.85
2018-09-03T14:38:40.368Z,96654.45
2018-09-03T14:41:09.131Z,96650.25
2018-09-03T14:43:37.865Z,96647.67
2018-09-03T14:46:06.820Z,96648.78
2018-09-03T14:48:35.560Z,96641.67
2018-09-03T14:51:04.395Z,96642.44
2018-09-03T14:53:33.126Z,96637.31
2018-09-03T14:56:01.917Z,96641.05
2018-09-03T14:58:30.727Z,96641.66
2018-09-03T15:00:59.504Z,96642.13
2018-09-03T15:03:28.281Z,96643.55
2018-09-03T15:05:57.023Z,96650.02
2018-09-03T15:08:25.870Z,96644.52
2018-09-03T15:10:54.629Z,96652.54
2018-09-03T15:13:23.401Z,96652.33
2018-09-03T15:15:52.174Z,96644.76
2018-09-03T15:18:20.927Z,96651.15
2018-09-03T15:20:49.717Z,96651.55
2018-09-03T15:23:18.464Z,96655.37
2018-09-03T15:25:47.205Z,96650.01
2018-09-03T15:28:15.981Z,96648.94
2018-09-03T15:30:44.754Z,96643.44
2018-09-03T15:33:13.532Z,96649.00
2018-09-03T15:35:42.383Z,96654.14
2018-09-03T15:38:11.253Z,96656.83
2018-09-03T15:40:40.204Z,96660.81
2018-09-03T15:43:08.979Z,96656.67
2018-09-03T15:45:37.833Z,96656.75
2018-09-03T15:48:06.675Z,96647.41
2018-09-03T15:50:35.495Z,96650.23
2018-09-03T15:53:04.300Z,96646.36
2018-09-03T15:55:33.045Z,96643.61
2018-09-03T15:58:01.819Z,96644.12
2018-09-03T16:00:30.568Z,96645.84
2018-09-03T16:02:59.370Z,96642.41
2018-09-03T16:05:28.152Z,96642.53
2018-09-03T16:07:56.909Z,96642.83
2018-09-03T16:10:25.706Z,96637.72
2018-09-03T16:12:54.436Z,96631.65
2018-09-03T16:15:23.195Z,96638.76
2018-09-03T16:17:52.104Z,96634.38
2018-09-03T16:20:20.871Z,96636.19
2018-09-03T16:22:49.639Z,96633.20
2018-09-03T16:25:18.459Z,96639.08
2018-09-03T16:27:47.241Z,96637.52
2018-09-03T16:30:16.002Z,96636.30
2018-09-03T16:32:44.808Z,96636.02
2018-09-03T16:35:13.568Z,96630.45
2018-09-03T16:37:42.402Z,96629.45
2018-09-03T16:40:11.331Z,96639.59
2018-09-03T16:42:40.121Z,96635.55
2018-09-03T16:45:08.948Z,96640.04
2018-09-03T16:47:37.706Z,96641.03
2018-09-03T16:50:06.545Z,96645.08
2018-09-03T16:52:35.533Z,96646.33
2018-09-03T16:55:04.400Z,96640.34
2018-09-03T16:57:33.145Z,96642.25
2018-09-03T17:00:01.912Z,96645.88
2018-09-03T17:02:30.734Z,96646.55
2018-09-03T17:04:59.491Z,96645.11
2018-09-03T17:07:28.418Z,96645.34
2018-09-03T17:09:57.191Z,96646.92
2018-09-03T17:12:26.183Z,96641.77
2018-09-03T17:14:54.980Z,96639.13
2018-09-03T17:17:24.048Z,96645.66
2018-09-03T17:19:52.856Z,96643.78
2018-09-03T17:22:21.686Z,96653.19
2018-09-03T17:24:50.509Z,96651.28
2018-09-03T17:27:19.340Z,96649.91
2018-09-03T17:29:48.144Z,96657.61
2018-09-03T17:32:16.905Z,96655.67
2018-09-03T17:34:45.669Z,96652.55
2018-09-03T17:37:14.468Z,96648.33
2018-09-03T17:39:43.297Z,96651.36
2018-09-03T17:42:12.060Z,96655.91
2018-09-03T17:44:40.877Z,96654.75
2018-09-03T17:47:09.659Z,96652.63
2018-09-03T17:49:38.440Z,96652.81
2018-09-03T17:52:07.248Z,96660.09
2018-09-03T17:54:36.025Z,96670.07
2018-09-03T17:57:04.845Z,96670.30
2018-09-03T17:59:33.649Z,96675.14
2018-09-03T18:02:02.491Z,96674.31
2018-09-03T18:04:31.271Z,96681.16
2018-09-03T18:07:00.025Z,96689.39
2018-09-03T18:09:28.813Z,96683.16
2018-09-03T18:11:57.611Z,96681.78
2018-09-03T18:14:26.372Z,96683.64
2018-09-03T18:16:55.108Z,96682.19
2018-09-03T18:19:23.898Z,96689.85
2018-09-03T18:21:52.726Z,96698.63
2018-09-03T18:24:21.455Z,96698.57
2018-09-03T18:26:50.212Z,96694.50
2018-09-03T18:29:18.944Z,96688.55
2018-09-03T18:31:47.923Z,96695.48
2018-09-03T18:34:16.696Z,96693.49
2018-09-03T18:36:45.472Z,96706.72
2018-09-03T18:39:14.220Z,96712.62
2018-09-03T18:41:43.022Z,96712.11
2018-09-03T18:44:11.772Z,96714.53
2018-09-03T18:46:40.548Z,96719.18
2018-09-03T18:49:09.297Z,96716.06
2018-09-03T18:51:38.083Z,96726.08
2018-09-03T18:54:06.973Z,96730.44
2018-09-03T18:56:35.752Z,96735.70
2018-09-03T18:59:04.572Z,96735.99
2018-09-03T19:01:33.334Z,96735.47
2018-09-03T19:04:02.128Z,96735.11
2018-09-03T19:06:30.898Z,96738.13
2018-09-03T19:08:59.708Z,96738.47
2018-09-03T19:11:28.561Z,96736.94
2018-09-03T19:13:57.347Z,96729.97
2018-09-03T19:16:26.175Z,96729.50
2018-09-03T19:18:55.022Z,96732.10
2018-09-03T19:21:23.788Z,96732.80
2018-09-03T19:23:52.544Z,96731.69
2018-09-03T19:26:24.257Z,96732.23
2018-09-03T19:28:53.012Z,96738.41
2018-09-03T19:31:21.994Z,96732.70
2018-09-03T19:33:50.858Z,96735.53
2018-09-03T19:36:19.713Z,96731.09
2018-09-03T19:38:48.476Z,96727.84
2018-09-03T19:41:17.233Z,96730.39
2018-09-03T19:43:45.996Z,96732.52
2018-09-03T19:46:14.744Z,96731.73
2018-09-03T19:48:43.622Z,96736.13
2018-09-03T19:51:12.426Z,96726.91
2018-09-03T19:53:41.221Z,96726.67
2018-09-03T19:56:10.011Z,96726.13
2018-09-03T19:58:38.808Z,96725.73
2018-09-03T20:01:07.641Z,96725.00
2018-09-03T20:03:36.439Z,96729.28
2018-09-03T20:06:05.372Z,96729.28
2018-09-03T20:08:34.307Z,96725.16
2018-09-03T20:11:03.172Z,96732.17
2018-09-03T20:13:32.297Z,96726.40
2018-09-03T20:16:01.067Z,96725.85
2018-09-03T20:18:29.876Z,96724.68
2018-09-03T20:20:58.792Z,96726.40
2018-09-03T20:23:27.667Z,96726.40
2018-09-03T20:25:56.551Z,96726.92
2018-09-03T20:28:25.566Z,96727.38
2018-09-03T20:30:54.549Z,96723.16
2018-09-03T20:33:23.324Z,96725.39
2018-09-03T20:35:52.108Z,96723.58
2018-09-03T20:38:20.926Z,96718.84
2018-09-03T20:40:49.805Z,96723.70
2018-09-03T20:43:18.761Z,96718.05
2018-09-03T20:45:47.750Z,96720.41
2018-09-03T20:48:16.788Z,96721.42
2018-09-03T20:50:45.647Z,96717.53
2018-09-03T20:53:14.412Z,96714.38
2018-09-03T20:55:43.291Z,96716.23
2018-09-03T20:58:12.073Z,96713.39
2018-09-03T21:00:41.100Z,96709.52
2018-09-03T21:03:10.120Z,96708.50
2018-09-03T21:05:39.462Z,96710.64
2018-09-03T21:08:08.567Z,96706.69
2018-09-03T21:10:37.367Z,96711.11
2018-09-03T21:13:06.252Z,96702.30
2018-09-03T21:15:35.124Z,96711.65
2018-09-03T21:18:03.977Z,96708.03
2018-09-03T21:20:32.888Z,96704.14
2018-09-03T21:23:01.645Z,96702.06
2018-09-03T21:25:30.459Z,96706.03
2018-09-03T21:27:59.352Z,96699.00
2018-09-03T21:30:28.268Z,96703.13
2018-09-03T21:32:57.085Z,96694.11
2018-09-03T21:35:25.882Z,96693.56
2018-09-03T21:37:54.880Z,96691.80
2018-09-03T21:40:23.746Z,96690.27
2018-09-03T21:42:52.548Z,96690.86
2018-09-03T21:45:21.357Z,96688.92
2018-09-03T21:47:50.165Z,96685.30
2018-09-03T21:50:19.067Z,96685.48
2018-09-03T21:52:47.940Z,96688.31
2018-09-03T21:55:16.767Z,96691.65
2018-09-03T21:57:45.603Z,96686.81
2018-09-03T22:00:14.481Z,96690.99
2018-09-03T22:02:43.345Z,96689.22
2018-09-03T22:05:12.197Z,96689.47
2018-09-03T22:07:41.030Z,96689.88
2018-09-03T22:10:09.883Z,96694.14
2018-09-03T22:12:38.739Z,96691.87
2018-09-03T22:15:07.700Z,96688.88
2018-09-03T22:17:36.564Z,96683.78
2018-09-03T22:20:05.691Z,96694.84
2018-09-03T22:22:34.928Z,96691.98
2018-09-03T22:25:03.878Z,96691.63
2018-09-03T22:27:32.843Z,96693.05
2018-09-03T22:30:01.654Z,96691.40
2018-09-03T22:32:30.508Z,96686.48
2018-09-03T22:34:59.308Z,96688.72
2018-09-03T22:37:28.215Z,96686.52
2018-09-03T22:39:56.975Z,96686.78
2018-09-03T22:42:27.215Z,96684.70
2018-09-03T22:44:57.480Z,96683.95
2018-09-03T22:47:26.273Z,96684.75
2018-09-03T22:49:55.123Z,96682.44
2018-09-03T22:52:23.919Z,96681.42
2018-09-03T22:54:52.692Z,96685.93
2018-09-03T22:57:21.484Z,96686.48
2018-09-03T22:59:50.261Z,96693.13
2018-09-03T23:02:19.049Z,96695.41
2018-09-03T23:04:47.827Z,96695.64
2018-09-03T23:07:16.662Z,96696.35
2018-09-03T23:09:45.459Z,96696.58
2018-09-03T23:12:14.484Z,96696.47
2018-09-03T23:14:43.246Z,96689.95
2018-09-03T23:17:12.052Z,96687.86
2018-09-03T23:19:40.863Z,96690.53
2018-09-03T23:22:10.132Z,96678.46
2018-09-03T23:24:38.934Z,96680.27
2018-09-03T23:27:07.717Z,96682.35
2018-09-03T23:29:36.526Z,96677.66
2018-09-03T23:32:05.339Z,96681.79
2018-09-03T23:34:34.115Z,96678.05
2018-09-03T23:37:02.900Z,96676.75
2018-09-03T23:39:31.733Z,96669.21
2018-09-03T23:42:00.516Z,96668.60
2018-09-03T23:44:29.319Z,96669.11
2018-09-03T23:46:58.150Z,96668.06
2018-09-03T23:49:26.917Z,96671.74
2018-09-03T23:51:55.695Z,96666.77
2018-09-03T23:54:24.462Z,96670.61
2018-09-03T23:56:53.256Z,96674.94
2018-09-03T23:59:22.082Z,96675.62
